createdAt,value
2023-02-28T00:01:31.815Z,18.27
2023-02-28T00:03:58.829Z,17.50
2023-02-28T00:06:26.355Z,16.63
2023-02-28T00:08:53.181Z,16.53
2023-02-28T00:11:20.005Z,17.03
2023-02-28T00:13:47.717Z,16.40
2023-02-28T00:16:17.183Z,17.50
2023-02-28T00:18:44.085Z,17.40
2023-02-28T00:21:10.960Z,17.60
2023-02-28T00:23:37.771Z,17.03
2023-02-28T00:26:04.855Z,18.03
2023-02-28T00:28:31.651Z,16.50
2023-02-28T00:30:58.976Z,16.87
2023-02-28T00:33:25.822Z,16.40
2023-02-28T00:35:52.737Z,17.80
2023-02-28T00:38:19.605Z,18.00
2023-02-28T00:40:46.528Z,15.17
2023-02-28T00:43:13.278Z,13.00
2023-02-28T00:45:40.103Z,14.37
2023-02-28T00:48:07.424Z,11.43
2023-02-28T00:50:34.240Z,13.43
2023-02-28T00:53:00.999Z,12.90
2023-02-28T00:55:27.960Z,13.40
2023-02-28T00:57:54.721Z,13.83
2023-02-28T01:00:21.616Z,13.67
2023-02-28T01:02:48.452Z,12.87
2023-02-28T01:05:15.466Z,10.87
2023-02-28T01:07:42.454Z,13.17
2023-02-28T01:10:10.094Z,11.40
2023-02-28T01:12:36.992Z,12.57
2023-02-28T01:15:04.106Z,10.60
2023-02-28T01:17:30.924Z,11.93
2023-02-28T01:19:57.886Z,10.87
2023-02-28T01:22:24.759Z,10.20
2023-02-28T01:24:51.561Z,10.63
2023-02-28T01:27:18.418Z,10.10
2023-02-28T01:29:45.223Z,12.93
2023-02-28T01:32:12.216Z,12.93
2023-02-28T01:34:39.284Z,11.27
2023-02-28T01:37:06.168Z,10.80
2023-02-28T01:39:32.929Z,11.03
2023-02-28T01:41:59.839Z,10.70
2023-02-28T01:45:14.751Z,10.37
2023-02-28T01:47:42.455Z,10.43
2023-02-28T01:50:13.052Z,9.10
2023-02-28T01:52:39.863Z,9.30
2023-02-28T01:55:07.286Z,10.27
2023-02-28T01:57:38.858Z,10.23
2023-02-28T02:00:16.877Z,9.70
2023-02-28T02:02:44.755Z,10.83
2023-02-28T02:05:16.021Z,9.93
2023-02-28T02:07:44.288Z,10.37
2023-02-28T02:10:16.111Z,9.57
2023-02-28T02:13:01.109Z,11.13
2023-02-28T02:15:35.426Z,9.90
2023-02-28T02:18:15.791Z,10.33
2023-02-28T02:21:13.560Z,9.63
2023-02-28T02:24:19.132Z,10.30
2023-02-28T02:27:07.531Z,10.90
2023-02-28T02:29:43.582Z,9.80
2023-02-28T02:32:34.625Z,9.90
2023-02-28T02:35:22.205Z,10.30
2023-02-28T02:38:08.377Z,10.93
2023-02-28T02:40:39.742Z,11.23
2023-02-28T02:43:15.387Z,9.27
2023-02-28T02:46:06.808Z,10.20
2023-02-28T02:48:34.692Z,10.17
2023-02-28T02:51:03.383Z,9.50
2023-02-28T02:53:33.730Z,9.27
2023-02-28T02:56:01.107Z,10.03
2023-02-28T02:58:30.679Z,9.60
2023-02-28T03:01:00.491Z,9.82
2023-02-28T03:03:30.686Z,10.20
2023-02-28T03:06:01.746Z,9.80
2023-02-28T03:08:30.412Z,10.17
2023-02-28T03:11:01.199Z,10.30
2023-02-28T03:13:47.540Z,10.03
2023-02-28T03:16:23.406Z,10.30
2023-02-28T03:19:02.419Z,9.67
2023-02-28T03:21:32.171Z,10.20
2023-02-28T03:24:11.041Z,10.70
2023-02-28T03:26:40.987Z,9.73
2023-02-28T03:32:00.993Z,10.50
2023-02-28T03:34:34.493Z,9.97
2023-02-28T03:37:05.729Z,10.03
2023-02-28T03:39:39.207Z,9.87
2023-02-28T03:42:26.331Z,9.77
2023-02-28T03:45:04.339Z,9.50
2023-02-28T03:47:42.733Z,10.57
2023-02-28T03:50:14.348Z,10.37
2023-02-28T03:52:46.313Z,10.40
2023-02-28T03:55:14.202Z,9.60
2023-02-28T03:58:00.920Z,10.30
2023-02-28T04:01:01.529Z,10.10
2023-02-28T04:03:28.402Z,10.10
2023-02-28T04:05:55.749Z,10.90
2023-02-28T04:08:22.868Z,10.63
2023-02-28T04:10:57.356Z,9.57
2023-02-28T04:13:24.202Z,9.13
2023-02-28T04:15:51.007Z,9.50
2023-02-28T04:18:17.907Z,9.80
2023-02-28T04:20:44.715Z,10.30
2023-02-28T04:23:11.669Z,8.93
2023-02-28T04:25:38.545Z,9.67
2023-02-28T04:28:05.514Z,9.10
2023-02-28T04:30:33.670Z,9.10
2023-02-28T04:33:01.372Z,9.13
2023-02-28T04:35:28.242Z,9.63
2023-02-28T04:37:55.100Z,9.00
2023-02-28T04:40:21.980Z,9.10
2023-02-28T04:42:48.797Z,9.00
2023-02-28T04:45:15.654Z,10.20
2023-02-28T04:47:42.417Z,10.97
2023-02-28T04:50:09.825Z,9.80
2023-02-28T04:52:36.573Z,9.23
2023-02-28T04:55:03.502Z,9.50
2023-02-28T04:57:31.125Z,8.87
2023-02-28T04:59:58.514Z,9.20
2023-02-28T05:02:25.813Z,10.10
2023-02-28T05:04:52.587Z,9.57
2023-02-28T05:07:19.303Z,10.13
2023-02-28T05:09:46.078Z,9.40
2023-02-28T05:12:12.813Z,10.00
2023-02-28T05:14:39.700Z,9.83
2023-02-28T05:17:06.559Z,10.00
2023-02-28T05:19:33.375Z,10.37
2023-02-28T05:22:00.149Z,9.23
2023-02-28T05:24:28.451Z,10.10
2023-02-28T05:26:55.478Z,11.63
2023-02-28T05:29:22.621Z,10.40
2023-02-28T05:31:49.671Z,10.43
2023-02-28T05:34:17.175Z,10.10
2023-02-28T05:36:44.184Z,10.53
2023-02-28T05:39:14.265Z,9.23
2023-02-28T05:41:44.268Z,8.97
2023-02-28T05:44:11.360Z,9.43
2023-02-28T05:46:38.202Z,9.27
2023-02-28T05:49:05.065Z,8.80
2023-02-28T05:51:32.317Z,9.03
2023-02-28T05:54:02.480Z,8.80
2023-02-28T05:56:29.270Z,9.70
2023-02-28T05:58:56.099Z,9.20
2023-02-28T06:01:31.848Z,9.43
2023-02-28T06:04:02.614Z,9.77
2023-02-28T06:06:30.678Z,10.10
2023-02-28T06:08:58.208Z,9.23
2023-02-28T06:11:28.696Z,8.87
2023-02-28T06:13:57.390Z,9.40
2023-02-28T06:16:25.335Z,8.80
2023-02-28T06:18:53.720Z,10.80
2023-02-28T06:21:20.623Z,9.13
2023-02-28T06:23:47.743Z,9.20
2023-02-28T06:26:14.608Z,9.67
2023-02-28T06:28:41.419Z,8.97
2023-02-28T06:31:12.545Z,10.40
2023-02-28T06:33:39.793Z,9.77
2023-02-28T06:36:07.030Z,10.50
2023-02-28T06:38:33.888Z,10.37
2023-02-28T06:41:01.486Z,10.00
2023-02-28T06:43:32.527Z,10.60
2023-02-28T06:46:00.706Z,9.30
2023-02-28T06:48:28.042Z,9.40
2023-02-28T06:51:05.626Z,9.67
2023-02-28T06:53:32.519Z,9.00
2023-02-28T06:55:59.384Z,9.20
2023-02-28T06:58:26.399Z,9.47
2023-02-28T07:00:53.428Z,11.13
2023-02-28T07:03:20.288Z,9.37
2023-02-28T07:05:47.245Z,9.80
2023-02-28T07:08:14.300Z,9.20
2023-02-28T07:10:41.307Z,10.20
2023-02-28T07:13:08.405Z,9.10
2023-02-28T07:15:37.670Z,9.17
2023-02-28T07:18:06.075Z,9.10
2023-02-28T07:20:32.998Z,9.53
2023-02-28T07:22:59.743Z,10.13
2023-02-28T07:25:27.313Z,11.00
2023-02-28T07:27:55.128Z,11.73
2023-02-28T07:30:25.059Z,9.70
2023-02-28T07:35:18.661Z,11.90
2023-02-28T07:37:45.395Z,10.00
2023-02-28T07:40:13.168Z,9.90
2023-02-28T07:42:40.775Z,11.23
2023-02-28T07:45:08.942Z,12.10
2023-02-28T07:47:35.707Z,9.67
2023-02-28T07:50:02.600Z,9.27
2023-02-28T07:52:29.446Z,10.00
2023-02-28T07:54:56.182Z,13.20
2023-02-28T07:57:23.024Z,13.07
2023-02-28T07:59:49.872Z,10.70
2023-02-28T08:02:17.420Z,9.90
2023-02-28T08:04:44.437Z,12.47
2023-02-28T08:07:14.176Z,10.17
2023-02-28T08:09:41.478Z,12.35
2023-02-28T08:12:08.802Z,10.20
2023-02-28T08:14:35.790Z,10.40
2023-02-28T08:17:02.552Z,9.80
2023-02-28T08:19:29.466Z,10.07
2023-02-28T08:21:56.891Z,12.07
2023-02-28T08:24:23.775Z,13.03
2023-02-28T08:26:50.710Z,12.87
2023-02-28T08:29:17.647Z,11.60
2023-02-28T08:31:44.608Z,14.77
2023-02-28T08:34:13.336Z,14.03
2023-02-28T08:36:40.250Z,14.07
2023-02-28T08:39:07.433Z,11.02
2023-02-28T08:41:34.716Z,10.90
2023-02-28T08:44:01.488Z,12.95
2023-02-28T08:46:28.242Z,12.88
2023-02-28T08:48:56.103Z,10.68
2023-02-28T08:51:27.909Z,11.30
2023-02-28T08:53:56.007Z,10.98
2023-02-28T08:56:23.010Z,12.45
2023-02-28T08:58:50.288Z,10.35
2023-02-28T09:01:17.107Z,11.52
2023-02-28T09:03:44.271Z,10.07
2023-02-28T09:06:11.354Z,13.40
2023-02-28T09:08:38.103Z,10.45
2023-02-28T09:11:05.136Z,11.85
2023-02-28T09:13:33.365Z,10.43
2023-02-28T09:16:01.055Z,14.80
2023-02-28T09:18:28.006Z,10.13
2023-02-28T09:20:54.735Z,10.32
2023-02-28T09:23:21.793Z,10.95
2023-02-28T09:25:49.924Z,10.75
2023-02-28T09:28:17.913Z,10.82
2023-02-28T09:30:52.735Z,12.88
2023-02-28T09:33:21.850Z,12.52
2023-02-28T09:35:52.059Z,15.55
2023-02-28T09:38:19.020Z,11.02
2023-02-28T09:40:54.420Z,11.00
2023-02-28T09:43:22.539Z,10.77
2023-02-28T09:45:52.905Z,10.93
2023-02-28T09:48:25.016Z,13.10
2023-02-28T09:51:02.330Z,11.40
2023-02-28T09:53:37.172Z,11.38
2023-02-28T09:56:18.815Z,11.25
2023-02-28T09:58:50.499Z,11.10
2023-02-28T10:01:26.356Z,10.82
2023-02-28T10:04:23.125Z,13.73
2023-02-28T10:06:53.062Z,11.65
2023-02-28T10:09:28.106Z,12.18
2023-02-28T10:11:58.417Z,11.10
2023-02-28T10:14:27.347Z,11.55
2023-02-28T10:17:17.130Z,13.80
2023-02-28T10:19:44.018Z,16.67
2023-02-28T10:22:11.794Z,11.65
2023-02-28T10:24:45.816Z,11.48
2023-02-28T10:27:26.265Z,10.18
2023-02-28T10:29:54.791Z,11.77
2023-02-28T10:32:25.354Z,12.02
2023-02-28T10:35:02.811Z,11.73
2023-02-28T10:37:29.737Z,12.85
2023-02-28T10:39:57.486Z,10.85
2023-02-28T10:42:29.197Z,11.13
2023-02-28T10:45:16.578Z,11.85
2023-02-28T10:47:54.023Z,13.07
2023-02-28T10:50:39.411Z,11.60
2023-02-28T10:53:24.853Z,12.88
2023-02-28T10:56:00.912Z,10.48
2023-02-28T10:58:49.578Z,11.15
2023-02-28T11:01:19.188Z,12.47
2023-02-28T11:06:22.900Z,11.65
2023-02-28T11:08:57.123Z,14.90
2023-02-28T11:11:26.072Z,14.82
2023-02-28T11:13:54.544Z,15.43
2023-02-28T11:16:21.387Z,12.40
2023-02-28T11:18:53.458Z,13.38
2023-02-28T11:21:29.998Z,15.27
2023-02-28T11:24:07.166Z,12.18
2023-02-28T11:26:47.746Z,12.52
2023-02-28T11:29:20.300Z,11.68
2023-02-28T11:32:10.140Z,12.43
2023-02-28T11:34:38.035Z,11.75
2023-02-28T11:37:06.588Z,12.15
2023-02-28T11:39:34.331Z,11.57
2023-02-28T11:42:12.872Z,11.05
2023-02-28T11:45:01.441Z,12.27
2023-02-28T11:47:31.263Z,13.70
2023-02-28T11:50:34.733Z,11.23
2023-02-28T11:53:07.197Z,11.75
2023-02-28T11:55:51.527Z,12.32
2023-02-28T11:58:37.376Z,11.75
2023-02-28T12:01:19.790Z,12.10
2023-02-28T12:04:08.248Z,10.90
2023-02-28T12:06:40.396Z,11.00
2023-02-28T12:09:25.852Z,11.95
2023-02-28T12:11:55.130Z,11.15
2023-02-28T12:14:37.021Z,11.55
2023-02-28T12:17:25.276Z,11.73
2023-02-28T12:20:05.155Z,10.65
2023-02-28T12:22:50.795Z,14.68
2023-02-28T12:25:37.699Z,10.07
2023-02-28T12:28:04.594Z,12.35
2023-02-28T12:30:36.108Z,10.13
2023-02-28T12:33:08.407Z,11.98
2023-02-28T12:35:38.513Z,12.52
2023-02-28T12:38:10.599Z,10.93
2023-02-28T12:41:02.601Z,11.32
2023-02-28T12:43:38.075Z,11.13
2023-02-28T12:46:21.104Z,11.32
2023-02-28T12:48:49.854Z,11.70
2023-02-28T12:51:16.888Z,12.13
2023-02-28T12:53:56.514Z,11.10
2023-02-28T12:56:31.198Z,12.75
2023-02-28T12:59:08.680Z,12.00
2023-02-28T13:01:53.603Z,12.45
2023-02-28T13:04:58.042Z,12.52
2023-02-28T13:07:42.760Z,11.90
2023-02-28T13:10:09.953Z,13.32
2023-02-28T13:12:37.010Z,10.77
2023-02-28T13:15:17.681Z,11.32
2023-02-28T13:17:44.782Z,10.07
2023-02-28T13:20:38.569Z,10.38
2023-02-28T13:23:08.027Z,10.20
2023-02-28T13:25:34.815Z,10.40
2023-02-28T13:28:05.349Z,13.50
2023-02-28T13:30:55.623Z,11.15
2023-02-28T13:33:51.064Z,10.77
2023-02-28T13:36:20.918Z,9.80
2023-02-28T13:38:49.274Z,9.55
2023-02-28T13:41:36.986Z,10.15
2023-02-28T13:44:09.776Z,10.32
2023-02-28T13:46:49.778Z,10.32
2023-02-28T13:49:37.914Z,9.80
2023-02-28T13:52:07.613Z,9.77
2023-02-28T13:54:42.484Z,10.05
2023-02-28T13:57:32.490Z,10.35
2023-02-28T14:00:19.277Z,10.57
2023-02-28T14:03:12.252Z,11.10
2023-02-28T14:05:39.979Z,12.00
2023-02-28T14:08:22.066Z,11.00
2023-02-28T14:10:52.944Z,11.20
2023-02-28T14:13:28.774Z,13.88
2023-02-28T14:16:05.620Z,12.70
2023-02-28T14:18:39.215Z,10.65
2023-02-28T14:21:22.014Z,10.05
2023-02-28T14:24:07.835Z,10.68
2023-02-28T14:26:44.375Z,12.98
2023-02-28T14:29:48.554Z,10.05
2023-02-28T14:32:23.002Z,9.70
2023-02-28T14:35:02.159Z,9.70
2023-02-28T14:37:34.662Z,11.05
2023-02-28T14:40:01.821Z,12.35
2023-02-28T14:42:32.055Z,10.52
2023-02-28T14:44:59.307Z,9.30
2023-02-28T14:47:32.116Z,10.93
2023-02-28T14:50:00.115Z,10.02
2023-02-28T14:52:31.046Z,9.40
2023-02-28T14:55:13.018Z,10.40
2023-02-28T14:57:51.555Z,11.30
2023-02-28T15:00:31.409Z,13.45
2023-02-28T15:05:26.912Z,10.02
2023-02-28T15:08:07.495Z,9.70
2023-02-28T15:10:34.537Z,10.30
2023-02-28T15:13:03.142Z,11.32
2023-02-28T15:16:01.907Z,11.85
2023-02-28T15:18:49.817Z,10.98
2023-02-28T15:21:24.937Z,10.10
2023-02-28T15:23:58.674Z,10.45
2023-02-28T15:26:29.066Z,10.05
2023-02-28T15:29:06.088Z,9.57
2023-02-28T15:31:50.311Z,10.15
2023-02-28T15:34:44.020Z,14.38
2023-02-28T15:37:28.568Z,9.05
2023-02-28T15:39:56.672Z,9.70
2023-02-28T15:42:25.104Z,9.75
2023-02-28T15:44:52.542Z,9.65
2023-02-28T15:47:21.462Z,9.88
2023-02-28T15:49:52.783Z,11.33
2023-02-28T15:52:44.941Z,10.57
2023-02-28T15:55:17.501Z,12.15
2023-02-28T15:57:44.325Z,15.00
2023-02-28T16:00:14.258Z,10.43
2023-02-28T16:02:41.277Z,12.10
2023-02-28T16:05:11.500Z,12.07
2023-02-28T16:07:45.344Z,11.43
2023-02-28T16:10:13.755Z,12.18
2023-02-28T16:12:40.704Z,10.57
2023-02-28T16:15:29.817Z,10.30
2023-02-28T16:17:57.269Z,13.40
2023-02-28T16:20:29.125Z,10.18
2023-02-28T16:22:56.149Z,10.10
2023-02-28T16:25:30.217Z,13.15
2023-02-28T16:27:58.760Z,11.93
2023-02-28T16:30:26.393Z,10.60
2023-02-28T16:32:53.519Z,10.57
2023-02-28T16:35:20.754Z,9.60
2023-02-28T16:37:47.628Z,11.48
2023-02-28T16:40:22.597Z,11.30
2023-02-28T16:42:50.425Z,10.40
2023-02-28T16:45:20.319Z,8.93
2023-02-28T16:50:24.256Z,11.02
2023-02-28T16:52:53.394Z,11.10
2023-02-28T16:55:20.163Z,12.88
2023-02-28T16:57:50.408Z,12.48
2023-02-28T17:00:17.604Z,10.85
2023-02-28T17:02:44.483Z,10.17
2023-02-28T17:05:15.262Z,10.10
2023-02-28T17:07:42.571Z,11.55
2023-02-28T17:10:17.638Z,11.90
2023-02-28T17:12:44.650Z,10.53
2023-02-28T17:15:15.280Z,9.30
2023-02-28T17:17:42.523Z,12.17
2023-02-28T17:20:23.626Z,9.80
2023-02-28T17:22:55.584Z,9.77
2023-02-28T17:25:22.604Z,10.93
2023-02-28T17:27:49.798Z,9.57
2023-02-28T17:30:17.080Z,14.70
2023-02-28T17:32:43.963Z,10.20
2023-02-28T17:35:11.008Z,12.37
2023-02-28T17:37:37.789Z,9.57
2023-02-28T17:40:05.549Z,9.20
2023-02-28T17:42:32.761Z,9.30
2023-02-28T17:44:59.584Z,9.40
2023-02-28T17:47:26.514Z,11.60
2023-02-28T17:49:53.398Z,10.90
2023-02-28T17:52:20.250Z,9.40
2023-02-28T17:54:46.989Z,9.70
2023-02-28T17:57:15.850Z,9.93
2023-02-28T17:59:43.241Z,11.10
2023-02-28T18:02:12.163Z,8.93
2023-02-28T18:04:39.106Z,11.43
2023-02-28T18:07:07.221Z,10.00
2023-02-28T18:09:33.972Z,12.07
2023-02-28T18:12:00.886Z,11.13
2023-02-28T18:14:27.689Z,9.97
2023-02-28T18:16:54.764Z,10.67
2023-02-28T18:19:22.118Z,10.20
2023-02-28T18:21:50.114Z,9.47
2023-02-28T18:24:17.672Z,11.83
2023-02-28T18:26:44.934Z,11.33
2023-02-28T18:29:25.979Z,10.37
2023-02-28T18:31:53.531Z,9.77
2023-02-28T18:34:21.467Z,10.87
2023-02-28T18:36:48.920Z,14.33
2023-02-28T18:39:15.984Z,12.50
2023-02-28T18:41:42.835Z,11.90
2023-02-28T18:44:19.159Z,13.27
2023-02-28T18:46:46.626Z,10.03
2023-02-28T18:49:13.645Z,10.40
2023-02-28T18:51:45.133Z,11.10
2023-02-28T18:54:13.014Z,10.63
2023-02-28T18:56:39.840Z,13.57
2023-02-28T18:59:07.164Z,10.60
2023-02-28T19:01:34.286Z,12.33
2023-02-28T19:04:01.586Z,11.53
2023-02-28T19:06:29.958Z,14.00
2023-02-28T19:08:58.013Z,12.77
2023-02-28T19:11:24.922Z,10.73
2023-02-28T19:13:51.761Z,11.50
2023-02-28T19:16:19.390Z,14.43
2023-02-28T19:18:46.198Z,13.90
2023-02-28T19:21:14.084Z,11.77
2023-02-28T19:23:41.175Z,11.87
2023-02-28T19:26:11.986Z,12.57
2023-02-28T19:28:38.999Z,15.67
2023-02-28T19:31:06.075Z,11.90
2023-02-28T19:33:32.846Z,12.37
2023-02-28T19:36:01.285Z,11.77
2023-02-28T19:38:28.305Z,11.03
2023-02-28T19:41:06.015Z,13.03
2023-02-28T19:43:32.856Z,11.20
2023-02-28T19:45:59.696Z,12.50
2023-02-28T19:48:28.176Z,12.93
2023-02-28T19:51:04.897Z,14.77
2023-02-28T19:53:31.978Z,11.63
2023-02-28T19:56:00.538Z,11.87
2023-02-28T19:58:27.639Z,23.57
2023-02-28T20:00:54.473Z,12.63
2023-02-28T20:03:21.429Z,11.43
2023-02-28T20:05:48.380Z,13.73
2023-02-28T20:08:15.416Z,13.60
2023-02-28T20:10:42.220Z,11.30
2023-02-28T20:13:09.121Z,11.80
2023-02-28T20:15:37.744Z,11.10
2023-02-28T20:18:05.089Z,12.57
2023-02-28T20:20:32.008Z,13.10
2023-02-28T20:22:58.916Z,11.57
2023-02-28T20:25:25.801Z,13.13
2023-02-28T20:27:52.749Z,11.97
2023-02-28T20:30:22.978Z,12.70
2023-02-28T20:32:49.921Z,10.80
2023-02-28T20:35:16.807Z,11.67
2023-02-28T20:37:44.940Z,14.10
2023-02-28T20:40:12.697Z,10.70
2023-02-28T20:42:39.633Z,10.90
2023-02-28T20:45:07.022Z,11.20
2023-02-28T20:47:33.873Z,12.10
2023-02-28T20:50:00.615Z,11.47
2023-02-28T20:52:27.515Z,11.53
2023-02-28T20:54:54.279Z,11.47
2023-02-28T20:57:21.125Z,12.30
2023-02-28T20:59:48.137Z,10.77
2023-02-28T21:02:16.902Z,13.23
2023-02-28T21:04:43.772Z,11.53
2023-02-28T21:07:10.668Z,11.77
2023-02-28T21:09:37.449Z,13.67
2023-02-28T21:12:04.336Z,11.70
2023-02-28T21:14:32.429Z,11.20
2023-02-28T21:16:59.231Z,12.57
2023-02-28T21:19:26.044Z,11.07
2023-02-28T21:21:54.471Z,10.53
2023-02-28T21:24:21.400Z,14.43
2023-02-28T21:26:48.460Z,17.70
2023-02-28T21:29:15.584Z,12.60
2023-02-28T21:31:42.441Z,12.67
2023-02-28T21:34:09.818Z,11.00
2023-02-28T21:36:39.783Z,12.07
2023-02-28T21:39:13.142Z,12.57
2023-02-28T21:41:40.162Z,13.33
2023-02-28T21:44:07.032Z,13.40
2023-02-28T21:46:34.123Z,13.60
2023-02-28T21:49:01.434Z,11.97
2023-02-28T21:51:31.346Z,12.03
2023-02-28T21:53:59.244Z,14.00
2023-02-28T21:56:28.419Z,14.17
2023-02-28T21:59:01.602Z,12.13
2023-02-28T22:01:35.630Z,12.20
2023-02-28T22:04:03.482Z,12.37
2023-02-28T22:06:32.578Z,12.50
2023-02-28T22:09:02.261Z,13.30
2023-02-28T22:11:29.168Z,12.43
2023-02-28T22:13:57.261Z,12.90
2023-02-28T22:16:25.008Z,11.67
2023-02-28T22:18:51.894Z,12.07
2023-02-28T22:21:19.131Z,12.23
2023-02-28T22:23:46.127Z,11.50
2023-02-28T22:26:15.599Z,11.53
2023-02-28T22:28:42.564Z,11.30
2023-02-28T22:31:20.192Z,12.03
2023-02-28T22:33:47.237Z,13.50
2023-02-28T22:36:15.137Z,13.60
2023-02-28T22:38:42.985Z,13.13
2023-02-28T22:41:10.181Z,12.50
2023-02-28T22:43:37.075Z,12.80
2023-02-28T22:46:04.932Z,12.80
2023-02-28T22:48:31.795Z,13.07
2023-02-28T22:51:06.453Z,13.70
2023-02-28T22:53:34.349Z,16.83
2023-02-28T22:56:01.260Z,13.23
2023-02-28T22:58:28.265Z,12.80
2023-02-28T23:00:55.088Z,15.43
2023-02-28T23:03:25.475Z,18.70
2023-02-28T23:05:52.869Z,14.47
2023-02-28T23:08:23.429Z,15.40
2023-02-28T23:10:51.168Z,15.53
2023-02-28T23:13:18.935Z,14.60
2023-02-28T23:15:46.043Z,19.30
2023-02-28T23:18:13.131Z,16.50
2023-02-28T23:20:39.977Z,16.70
2023-02-28T23:23:06.804Z,15.10
2023-02-28T23:25:33.905Z,17.13
2023-02-28T23:28:01.298Z,15.40
2023-02-28T23:30:28.107Z,14.87
2023-02-28T23:32:55.426Z,14.17
2023-02-28T23:35:23.019Z,14.00
2023-02-28T23:37:50.015Z,13.07
2023-02-28T23:40:17.407Z,14.17
2023-02-28T23:42:45.155Z,14.30
2023-02-28T23:45:14.316Z,13.63
2023-02-28T23:47:41.696Z,13.68
2023-02-28T23:50:09.406Z,13.23
2023-02-28T23:52:36.236Z,15.07
2023-02-28T23:55:03.133Z,13.80
2023-02-28T23:57:30.070Z,14.20
2023-02-28T23:59:57.009Z,16.63
